Time;durP1;ratioP1;P1;durP2;ratioP2;P2;SDS_P1;SDS_P2;PMS_P1;PMS_P2;Temp;Humidity;BMP_temperature;BMP_pressure;BME280_temperature;BME280_humidity;BME280_pressure;Samples;Min_cycle;Max_cycle;Signal;HPM_P1;HPM_P2
2023/05/09 00:01:54;;;;;;;25.70;12.48;;;14.00;99.90;;;;;;4774683;29;20368;-84
2023/05/09 00:04:19;;;;;;;24.20;10.43;;;13.90;99.90;;;;;;4805925;29;20134;-83
2023/05/09 00:06:45;;;;;;;24.17;10.82;;;13.60;99.90;;;;;;4805798;29;20047;-85
2023/05/09 00:09:11;;;;;;;30.00;14.20;;;13.90;99.90;;;;;;4775018;29;20150;-84
2023/05/09 00:11:37;;;;;;;27.15;11.95;;;13.90;99.90;;;;;;4789914;29;20083;-85
2023/05/09 00:14:03;;;;;;;26.88;11.10;;;14.20;99.90;;;;;;4806112;29;20050;-85
2023/05/09 00:16:31;;;;;;;22.35;10.57;;;14.00;99.90;;;;;;4806115;29;20058;-85
2023/05/09 00:18:57;;;;;;;26.15;11.23;;;14.00;99.90;;;;;;4816451;29;20095;-86
2023/05/09 00:21:23;;;;;;;23.85;10.10;;;13.90;99.90;;;;;;4821285;29;20378;-87
2023/05/09 00:23:49;;;;;;;25.25;10.77;;;14.00;99.90;;;;;;4806176;29;20065;-86
2023/05/09 00:26:15;;;;;;;24.75;11.07;;;14.00;99.90;;;;;;4805998;29;20054;-86
2023/05/09 00:28:41;;;;;;;21.60;10.20;;;14.00;99.90;;;;;;4809353;29;20114;-84
2023/05/09 00:31:06;;;;;;;19.50;9.45;;;13.90;99.90;;;;;;4790153;29;20058;-88
2023/05/09 00:33:32;;;;;;;19.50;9.18;;;14.00;99.90;;;;;;4808979;29;20054;-87
2023/05/09 00:35:58;;;;;;;21.25;9.52;;;14.00;99.90;;;;;;4790138;29;20059;-86
2023/05/09 00:38:23;;;;;;;20.92;9.73;;;14.00;99.90;;;;;;4806195;29;20091;-84
2023/05/09 00:40:49;;;;;;;19.95;9.15;;;14.00;99.90;;;;;;4805594;29;20429;-84
2023/05/09 00:43:15;;;;;;;24.35;9.55;;;13.90;99.90;;;;;;4810319;29;20061;-84
2023/05/09 00:45:42;;;;;;;18.52;9.38;;;13.90;99.90;;;;;;4823206;29;20399;-84
2023/05/09 00:48:08;;;;;;;17.23;8.70;;;13.90;99.90;;;;;;4807198;29;20090;-84
2023/05/09 00:50:34;;;;;;;18.40;9.50;;;13.90;99.90;;;;;;4792652;29;20138;-84
2023/05/09 00:53:00;;;;;;;23.25;10.07;;;14.00;99.90;;;;;;4806923;29;20497;-84
2023/05/09 00:55:26;;;;;;;24.92;10.85;;;14.40;99.90;;;;;;4823648;29;20129;-84
2023/05/09 00:57:52;;;;;;;26.80;10.85;;;13.90;99.90;;;;;;4821960;29;20500;-84
2023/05/09 01:00:18;;;;;;;23.33;9.70;;;13.90;99.90;;;;;;4789270;29;20047;-84
2023/05/09 01:02:49;;;;;;;28.02;11.85;;;14.10;99.90;;;;;;4805405;29;20050;-84
2023/05/09 01:05:15;;;;;;;26.05;11.35;;;14.00;99.90;;;;;;4792656;29;20050;-84
2023/05/09 01:08:01;;;;;;;24.25;10.55;;;13.80;99.90;;;;;;4792712;29;20055;-84
2023/05/09 01:10:34;;;;;;;;;;;13.90;99.90;;;;;;4793151;29;20055;-84
2023/05/09 01:13:04;;;;;;;24.75;11.15;;;13.80;99.90;;;;;;4813980;29;19933;-84
2023/05/09 01:15:36;;;;;;;21.60;10.48;;;13.90;99.90;;;;;;4792666;29;20046;-84
2023/05/09 01:18:12;;;;;;;22.70;9.90;;;13.90;99.90;;;;;;4792190;29;20553;-84
2023/05/09 01:20:44;;;;;;;;;;;13.80;99.90;;;;;;4809145;29;20055;-84
2023/05/09 01:23:43;;;;;;;24.40;9.45;;;13.90;99.90;;;;;;4808579;29;19925;-84
2023/05/09 01:26:31;;;;;;;25.48;11.70;;;13.90;99.90;;;;;;4809017;29;20039;-84
2023/05/09 01:29:34;;;;;;;27.30;10.82;;;13.80;99.90;;;;;;4806866;29;20058;-84
2023/05/09 01:32:06;;;;;;;23.98;10.90;;;13.90;99.90;;;;;;4824807;29;20061;-84
2023/05/09 01:34:34;;;;;;;27.80;12.93;;;13.80;99.90;;;;;;4826348;29;20062;-85
2023/05/09 01:37:02;;;;;;;25.08;10.55;;;13.80;99.90;;;;;;4810283;29;20074;-85
2023/05/09 01:39:30;;;;;;;22.60;9.93;;;13.90;99.90;;;;;;4826016;29;20073;-84
2023/05/09 01:41:59;;;;;;;20.45;9.45;;;13.90;99.90;;;;;;4826310;29;20511;-84
2023/05/09 01:44:27;;;;;;;20.13;9.07;;;13.80;99.90;;;;;;4809001;29;20051;-85
2023/05/09 01:46:56;;;;;;;28.98;13.00;;;13.90;99.90;;;;;;4808161;29;20513;-85
2023/05/09 01:49:22;;;;;;;23.73;11.23;;;13.80;99.90;;;;;;4808252;29;20130;-84
2023/05/09 01:51:49;;;;;;;25.80;11.38;;;13.90;99.90;;;;;;4805291;29;20054;-84
2023/05/09 01:54:16;;;;;;;28.25;10.80;;;13.90;99.90;;;;;;4808947;29;20121;-85
2023/05/09 01:56:42;;;;;;;25.83;10.43;;;13.90;99.90;;;;;;4826041;29;20046;-84
2023/05/09 01:59:14;;;;;;;26.27;12.00;;;13.90;99.90;;;;;;4825574;29;20050;-84
2023/05/09 02:01:41;;;;;;;29.05;12.68;;;13.90;99.90;;;;;;4825973;29;20488;-84
2023/05/09 02:04:07;;;;;;;27.77;11.52;;;13.90;99.90;;;;;;4824293;29;20133;-85
2023/05/09 02:06:34;;;;;;;24.88;11.13;;;13.90;99.90;;;;;;4825628;29;20409;-85
2023/05/09 02:09:01;;;;;;;23.73;11.15;;;13.90;99.90;;;;;;4825165;29;20106;-84
2023/05/09 02:11:27;;;;;;;25.00;11.52;;;13.80;99.90;;;;;;4812350;29;20047;-84
2023/05/09 02:13:53;;;;;;;25.80;11.40;;;13.80;99.90;;;;;;4808784;29;20051;-85
2023/05/09 02:16:19;;;;;;;27.13;13.23;;;13.80;99.90;;;;;;4790841;29;20057;-85
2023/05/09 02:18:45;;;;;;;26.08;11.75;;;13.80;99.90;;;;;;4807550;29;20055;-85
2023/05/09 02:21:11;;;;;;;22.20;11.32;;;13.90;99.90;;;;;;4807805;29;20047;-85
2023/05/09 02:23:37;;;;;;;19.42;9.93;;;13.90;99.90;;;;;;4803213;29;20097;-85
2023/05/09 02:26:03;;;;;;;24.42;12.07;;;13.80;99.90;;;;;;4823677;29;20062;-85
2023/05/09 02:28:29;;;;;;;24.67;11.60;;;13.90;99.90;;;;;;4824807;29;20137;-84
2023/05/09 02:30:58;;;;;;;32.35;14.38;;;13.80;99.90;;;;;;4808954;29;20553;-85
2023/05/09 02:33:26;;;;;;;25.05;10.75;;;13.80;99.90;;;;;;4825354;29;20129;-85
2023/05/09 02:35:52;;;;;;;28.25;12.65;;;13.90;99.90;;;;;;4807650;29;20050;-85
2023/05/09 02:38:19;;;;;;;22.80;10.77;;;13.90;99.90;;;;;;4824422;29;20059;-85
2023/05/09 02:40:46;;;;;;;24.48;11.93;;;13.80;99.90;;;;;;4825274;29;20118;-84
2023/05/09 02:43:13;;;;;;;23.92;11.30;;;13.90;99.90;;;;;;4825437;29;20095;-84
2023/05/09 02:45:39;;;;;;;25.25;12.70;;;13.90;99.90;;;;;;4793546;29;20078;-84
2023/05/09 02:48:05;;;;;;;24.23;11.48;;;13.90;99.90;;;;;;4808186;29;20531;-85
2023/05/09 02:50:31;;;;;;;25.15;11.73;;;13.90;99.90;;;;;;4822417;29;20072;-87
2023/05/09 02:52:57;;;;;;;24.60;11.40;;;13.90;99.90;;;;;;4807168;29;20539;-86
2023/05/09 02:55:22;;;;;;;24.50;11.65;;;13.90;99.90;;;;;;4807073;29;20046;-85
2023/05/09 02:57:48;;;;;;;23.67;11.15;;;13.90;99.90;;;;;;4790715;29;20046;-84
2023/05/09 03:00:14;;;;;;;22.45;11.07;;;13.90;99.90;;;;;;4807213;29;20168;-85
2023/05/09 03:02:40;;;;;;;21.10;9.60;;;13.90;99.90;;;;;;4776001;29;20059;-84
2023/05/09 03:05:06;;;;;;;21.05;11.05;;;13.90;99.90;;;;;;4807207;29;20396;-86
2023/05/09 03:07:32;;;;;;;24.33;11.75;;;13.90;99.90;;;;;;4824700;29;20054;-85
2023/05/09 03:09:58;;;;;;;23.45;12.02;;;13.90;99.90;;;;;;4805711;29;20514;-84
2023/05/09 03:12:24;;;;;;;24.13;11.45;;;13.90;99.90;;;;;;4808441;29;20050;-84
2023/05/09 03:14:50;;;;;;;28.20;11.68;;;13.90;99.90;;;;;;4792571;29;20050;-84
2023/05/09 03:17:20;;;;;;;25.52;11.48;;;13.90;99.90;;;;;;4805110;29;20054;-84
2023/05/09 03:19:47;;;;;;;26.23;12.27;;;13.80;99.90;;;;;;4808668;29;20056;-87
2023/05/09 03:22:13;;;;;;;19.48;9.77;;;13.90;99.90;;;;;;4824945;29;20107;-84
2023/05/09 03:24:39;;;;;;;22.70;10.77;;;13.90;99.90;;;;;;4823854;29;20046;-85
2023/05/09 03:27:05;;;;;;;25.58;12.05;;;13.90;99.90;;;;;;4822454;29;20058;-84
2023/05/09 03:29:30;;;;;;;26.25;11.73;;;13.90;99.90;;;;;;4824792;29;20089;-85
2023/05/09 03:31:56;;;;;;;18.70;9.15;;;13.90;99.90;;;;;;4808455;29;20054;-85
2023/05/09 03:34:22;;;;;;;22.65;10.95;;;13.90;99.90;;;;;;4808324;29;20065;-86
2023/05/09 03:36:47;;;;;;;22.02;10.88;;;13.90;99.90;;;;;;4822567;29;20046;-86
2023/05/09 03:39:13;;;;;;;22.80;10.63;;;13.90;99.90;;;;;;4823407;29;20073;-85
2023/05/09 03:41:39;;;;;;;22.75;11.45;;;13.80;99.90;;;;;;4824390;29;20129;-84
2023/05/09 03:44:04;;;;;;;22.20;10.57;;;13.90;99.90;;;;;;4808069;29;20401;-85
2023/05/09 03:46:30;;;;;;;23.40;11.57;;;13.90;99.90;;;;;;4795730;29;20500;-86
2023/05/09 03:48:56;;;;;;;21.33;10.48;;;13.90;99.90;;;;;;4790629;29;20057;-86
2023/05/09 03:51:21;;;;;;;24.35;11.18;;;13.90;99.90;;;;;;4805944;29;20058;-84
2023/05/09 03:53:47;;;;;;;20.70;10.73;;;13.90;99.90;;;;;;4802016;29;20054;-85
2023/05/09 03:56:13;;;;;;;21.02;10.35;;;14.00;99.90;;;;;;4824506;29;20038;-85
2023/05/09 03:58:39;;;;;;;22.35;11.20;;;13.80;99.90;;;;;;4806185;29;20050;-84
2023/05/09 04:01:05;;;;;;;22.10;10.63;;;13.80;99.90;;;;;;4823951;29;20125;-84
2023/05/09 04:03:31;;;;;;;21.98;9.73;;;13.80;99.90;;;;;;4824233;29;20087;-84
2023/05/09 04:05:57;;;;;;;20.48;10.95;;;13.80;99.90;;;;;;4823905;29;20053;-85
2023/05/09 04:08:23;;;;;;;19.38;9.55;;;13.90;99.90;;;;;;4811839;29;20042;-85
2023/05/09 04:10:49;;;;;;;19.42;8.73;;;13.90;99.90;;;;;;4797677;29;20042;-84
2023/05/09 04:13:15;;;;;;;18.88;9.38;;;13.90;99.90;;;;;;4824043;29;20046;-86
2023/05/09 04:15:41;;;;;;;20.23;9.88;;;13.90;99.90;;;;;;4807561;29;20110;-85
2023/05/09 04:18:07;;;;;;;20.80;10.13;;;13.90;99.90;;;;;;4807210;29;20054;-84
2023/05/09 04:20:33;;;;;;;17.85;10.05;;;13.90;99.90;;;;;;4817820;29;20091;-84
2023/05/09 04:22:59;;;;;;;21.38;10.20;;;13.90;99.90;;;;;;4824004;29;20523;-84
2023/05/09 04:25:24;;;;;;;27.02;12.40;;;14.00;99.90;;;;;;4823875;29;20073;-83
2023/05/09 04:27:50;;;;;;;25.38;12.00;;;13.90;99.90;;;;;;4823948;29;20051;-84
2023/05/09 04:30:16;;;;;;;23.38;11.65;;;13.90;99.90;;;;;;4822051;29;20049;-84
2023/05/09 04:32:45;;;;;;;24.98;12.70;;;13.90;99.90;;;;;;4823464;29;20129;-84
2023/05/09 04:35:13;;;;;;;22.48;11.57;;;13.90;99.90;;;;;;4822178;29;20137;-84
2023/05/09 04:37:39;;;;;;;22.45;10.77;;;13.90;99.90;;;;;;4805379;29;20059;-84
2023/05/09 04:40:07;;;;;;;26.48;12.65;;;14.00;99.90;;;;;;4789766;29;20063;-83
2023/05/09 04:42:32;;;;;;;26.08;12.52;;;14.00;99.90;;;;;;4805350;29;20066;-83
2023/05/09 04:44:58;;;;;;;25.23;12.80;;;14.00;99.90;;;;;;4809351;29;20046;-84
2023/05/09 04:47:24;;;;;;;33.45;15.85;;;14.00;99.90;;;;;;4823654;29;20054;-84
2023/05/09 04:49:50;;;;;;;28.13;12.80;;;14.00;99.90;;;;;;4802828;29;20042;-84
2023/05/09 04:52:16;;;;;;;29.42;14.82;;;14.00;99.90;;;;;;4821528;29;20140;-83
2023/05/09 04:54:41;;;;;;;24.38;12.73;;;14.10;99.90;;;;;;4822929;29;20061;-83
2023/05/09 04:57:07;;;;;;;25.45;12.57;;;14.10;99.90;;;;;;4823680;29;20061;-83
2023/05/09 04:59:34;;;;;;;23.23;12.23;;;14.10;99.90;;;;;;4806447;29;20115;-84
2023/05/09 05:01:59;;;;;;;20.55;10.80;;;14.10;99.90;;;;;;4821911;29;20066;-84
2023/05/09 05:04:25;;;;;;;18.80;10.48;;;14.20;99.90;;;;;;4806401;29;20385;-84
2023/05/09 05:06:51;;;;;;;17.75;10.05;;;14.20;99.90;;;;;;4823270;29;20061;-84
2023/05/09 05:09:16;;;;;;;18.30;8.52;;;14.30;99.90;;;;;;4823615;29;20050;-84
2023/05/09 05:11:42;;;;;;;18.25;10.30;;;14.30;99.90;;;;;;4823539;29;20576;-84
2023/05/09 05:14:08;;;;;;;15.65;8.77;;;14.30;99.90;;;;;;4820274;29;20047;-85
2023/05/09 05:16:33;;;;;;;15.50;8.52;;;14.40;99.90;;;;;;4805533;29;20169;-84
2023/05/09 05:18:59;;;;;;;13.80;7.85;;;14.40;99.90;;;;;;4788768;29;20540;-85
2023/05/09 05:21:25;;;;;;;15.00;8.45;;;14.40;99.90;;;;;;4805099;29;20043;-85
2023/05/09 05:23:51;;;;;;;14.57;8.48;;;14.50;99.90;;;;;;4790041;29;20042;-85
2023/05/09 05:26:16;;;;;;;16.35;9.68;;;14.50;99.90;;;;;;4807729;29;20073;-84
2023/05/09 05:28:42;;;;;;;15.95;8.98;;;14.60;99.90;;;;;;4823300;29;20053;-85
2023/05/09 05:31:07;;;;;;;14.48;8.10;;;14.60;99.90;;;;;;4807182;29;20050;-85
2023/05/09 05:33:33;;;;;;;12.75;8.32;;;14.60;99.90;;;;;;4802115;29;20046;-85
2023/05/09 05:35:59;;;;;;;15.25;8.77;;;14.60;99.90;;;;;;4813710;29;20043;-83
2023/05/09 05:38:25;;;;;;;13.80;8.27;;;14.60;99.90;;;;;;4806645;29;20093;-85
2023/05/09 05:40:51;;;;;;;13.10;8.10;;;14.60;99.90;;;;;;4813448;29;20417;-86
2023/05/09 05:43:17;;;;;;;11.30;7.10;;;14.40;99.90;;;;;;4805975;29;20587;-87
2023/05/09 05:45:43;;;;;;;12.43;8.18;;;14.60;99.90;;;;;;4795969;29;20090;-85
2023/05/09 05:48:08;;;;;;;11.35;7.28;;;14.60;99.90;;;;;;4806881;29;20133;-86
2023/05/09 05:50:35;;;;;;;11.40;6.97;;;14.60;99.90;;;;;;4824217;29;20065;-84
2023/05/09 05:53:04;;;;;;;10.05;6.85;;;14.60;99.90;;;;;;4826335;29;20385;-87
2023/05/09 05:55:29;;;;;;;11.73;7.60;;;14.60;99.90;;;;;;4822945;29;20050;-85
2023/05/09 05:57:55;;;;;;;12.57;7.90;;;14.60;99.90;;;;;;4808771;29;20397;-86
2023/05/09 06:00:21;;;;;;;10.65;7.05;;;14.60;99.90;;;;;;4809749;29;20050;-85
2023/05/09 06:02:47;;;;;;;15.38;8.73;;;14.70;99.90;;;;;;4802214;29;20100;-87
2023/05/09 06:05:12;;;;;;;13.75;8.38;;;14.70;99.90;;;;;;4808089;29;20402;-84
2023/05/09 06:07:43;;;;;;;11.57;7.82;;;14.70;99.90;;;;;;4810580;29;20054;-84
2023/05/09 06:10:09;;;;;;;11.07;7.95;;;14.70;99.90;;;;;;4791488;29;20057;-86
2023/05/09 06:12:35;;;;;;;11.20;7.10;;;14.60;99.90;;;;;;4822866;29;20059;-85
2023/05/09 06:15:03;;;;;;;12.30;8.10;;;14.80;99.90;;;;;;4812362;29;20115;-87
2023/05/09 06:17:29;;;;;;;12.07;7.97;;;14.80;99.90;;;;;;4804441;29;20106;-86
2023/05/09 06:19:55;;;;;;;12.98;8.85;;;14.90;99.90;;;;;;4793487;29;20125;-84
2023/05/09 06:22:20;;;;;;;14.07;9.05;;;14.90;99.90;;;;;;4809604;29;20057;-84
2023/05/09 06:24:46;;;;;;;11.82;7.78;;;14.90;99.90;;;;;;4808007;29;20050;-85
2023/05/09 06:27:12;;;;;;;13.55;8.43;;;14.90;99.90;;;;;;4825392;29;20511;-85
2023/05/09 06:29:37;;;;;;;11.50;7.57;;;14.90;99.90;;;;;;4792356;29;20114;-85
2023/05/09 06:32:04;;;;;;;13.10;8.25;;;15.00;99.90;;;;;;4808445;29;20059;-85
2023/05/09 06:34:29;;;;;;;13.20;8.23;;;15.10;99.90;;;;;;4809127;29;20059;-85
2023/05/09 06:36:55;;;;;;;15.50;8.50;;;15.10;99.90;;;;;;4809471;29;20050;-84
2023/05/09 06:39:21;;;;;;;16.05;8.48;;;15.10;99.90;;;;;;4823523;29;20065;-83
2023/05/09 06:41:46;;;;;;;15.98;9.95;;;15.10;99.90;;;;;;4823600;29;20046;-83
2023/05/09 06:44:12;;;;;;;14.90;10.02;;;15.20;99.90;;;;;;4825597;29;20050;-84
2023/05/09 06:46:38;;;;;;;15.00;8.70;;;15.20;99.90;;;;;;4809047;29;20049;-84
2023/05/09 06:49:04;;;;;;;13.88;8.38;;;15.10;99.90;;;;;;4801589;29;20039;-85
2023/05/09 06:51:31;;;;;;;14.95;9.20;;;15.10;99.90;;;;;;4808890;29;20053;-85
2023/05/09 06:53:57;;;;;;;14.98;8.32;;;15.20;99.90;;;;;;4825214;29;20053;-84
2023/05/09 06:56:24;;;;;;;15.55;9.13;;;15.30;99.90;;;;;;4794196;29;20046;-85
2023/05/09 06:58:50;;;;;;;12.38;8.15;;;15.20;99.90;;;;;;4809124;29;20054;-85
2023/05/09 07:01:16;;;;;;;13.15;8.35;;;14.90;99.90;;;;;;4822938;29;20125;-85
2023/05/09 07:03:46;;;;;;;14.98;8.88;;;15.30;99.90;;;;;;4808318;29;20078;-86
2023/05/09 07:06:12;;;;;;;14.00;9.00;;;15.30;99.90;;;;;;4808761;29;20638;-86
2023/05/09 07:08:38;;;;;;;13.45;8.80;;;15.30;99.90;;;;;;4808489;29;20046;-86
2023/05/09 07:11:04;;;;;;;14.40;9.60;;;15.30;99.90;;;;;;4819754;29;20043;-85
2023/05/09 07:13:30;;;;;;;17.75;10.10;;;15.30;99.90;;;;;;4806680;29;20050;-85
2023/05/09 07:15:56;;;;;;;17.60;9.63;;;15.30;99.90;;;;;;4790560;29;20539;-85
2023/05/09 07:18:22;;;;;;;21.42;11.73;;;15.30;99.90;;;;;;4791148;29;20504;-83
2023/05/09 07:20:48;;;;;;;21.42;10.90;;;15.30;99.90;;;;;;4790681;29;20054;-85
2023/05/09 07:23:16;;;;;;;21.10;11.05;;;15.30;99.90;;;;;;4807507;29;20051;-88
2023/05/09 07:25:44;;;;;;;18.67;10.70;;;15.30;99.90;;;;;;4790463;29;20051;-83
2023/05/09 07:28:11;;;;;;;21.35;11.30;;;15.40;99.90;;;;;;4780813;29;20126;-83
2023/05/09 07:30:37;;;;;;;26.80;12.60;;;15.40;99.90;;;;;;4794940;29;20062;-85
2023/05/09 07:33:03;;;;;;;20.27;12.63;;;15.40;99.90;;;;;;4801660;29;20511;-85
2023/05/09 07:35:28;;;;;;;23.45;13.63;;;15.40;99.90;;;;;;4824191;29;20050;-84
2023/05/09 07:37:54;;;;;;;21.73;12.18;;;15.60;99.90;;;;;;4807975;29;20452;-82
2023/05/09 07:40:23;;;;;;;21.90;12.07;;;15.50;99.90;;;;;;4823629;29;20051;-84
2023/05/09 07:42:50;;;;;;;21.55;12.00;;;15.50;99.90;;;;;;4800891;29;20069;-82
2023/05/09 07:45:16;;;;;;;22.27;12.38;;;15.60;99.90;;;;;;4806189;29;20408;-82
2023/05/09 07:47:41;;;;;;;20.40;12.82;;;15.60;99.90;;;;;;4779272;29;20453;-83
2023/05/09 07:50:07;;;;;;;29.98;13.95;;;15.70;99.90;;;;;;4791505;29;20047;-84
2023/05/09 07:52:33;;;;;;;21.40;12.35;;;15.70;99.90;;;;;;4790079;29;20061;-84
2023/05/09 07:54:59;;;;;;;19.67;11.48;;;15.70;99.90;;;;;;4791648;29;20042;-83
2023/05/09 07:57:25;;;;;;;23.58;12.18;;;15.80;99.90;;;;;;4823669;29;20034;-84
2023/05/09 07:59:51;;;;;;;25.00;12.70;;;15.90;99.90;;;;;;4808341;29;20069;-82
2023/05/09 08:02:17;;;;;;;25.23;14.93;;;15.90;99.90;;;;;;4806977;29;20450;-83
2023/05/09 08:04:42;;;;;;;24.65;13.43;;;15.90;99.90;;;;;;4806850;29;20138;-83
2023/05/09 08:07:08;;;;;;;20.63;11.82;;;16.00;99.90;;;;;;4806396;29;20117;-84
2023/05/09 08:09:34;;;;;;;25.23;14.50;;;16.10;99.90;;;;;;4806249;29;20532;-85
2023/05/09 08:12:00;;;;;;;31.35;16.13;;;16.00;99.90;;;;;;4812146;29;20046;-83
2023/05/09 08:14:26;;;;;;;22.65;14.05;;;16.00;99.90;;;;;;4819065;29;20133;-83
2023/05/09 08:16:52;;;;;;;30.60;14.45;;;16.10;99.90;;;;;;4817262;29;20540;-87
2023/05/09 08:19:19;;;;;;;27.45;15.32;;;16.10;99.90;;;;;;4791532;29;20054;-84
2023/05/09 08:21:45;;;;;;;27.15;13.68;;;16.20;99.90;;;;;;4806165;29;20058;-84
2023/05/09 08:24:11;;;;;;;24.00;12.90;;;16.20;99.90;;;;;;4789851;29;20591;-84
2023/05/09 08:26:37;;;;;;;26.60;14.93;;;16.30;99.90;;;;;;4818079;29;20050;-84
2023/05/09 08:29:03;;;;;;;29.55;15.18;;;16.30;99.90;;;;;;4817157;29;20042;-84
2023/05/09 08:31:30;;;;;;;31.13;15.23;;;16.30;99.90;;;;;;4800287;29;20082;-83
2023/05/09 08:33:55;;;;;;;27.17;14.80;;;16.30;99.90;;;;;;4789342;29;20051;-83
2023/05/09 08:36:22;;;;;;;30.23;14.98;;;16.40;99.90;;;;;;4806540;29;20058;-84
2023/05/09 08:38:48;;;;;;;30.17;16.52;;;16.40;99.90;;;;;;4805497;29;20059;-83
2023/05/09 08:41:15;;;;;;;33.08;16.58;;;16.40;99.90;;;;;;4814621;29;20054;-85
2023/05/09 08:43:41;;;;;;;33.83;17.00;;;16.50;99.90;;;;;;4807604;29;20133;-84
2023/05/09 08:46:09;;;;;;;32.63;17.95;;;16.50;99.90;;;;;;4823719;29;20054;-84
2023/05/09 08:48:38;;;;;;;34.00;17.60;;;16.60;99.90;;;;;;4797429;29;20058;-85
2023/05/09 08:51:05;;;;;;;31.20;15.30;;;16.50;99.90;;;;;;4823117;29;20100;-84
2023/05/09 08:53:32;;;;;;;36.05;16.50;;;16.70;99.90;;;;;;4807103;29;20078;-83
2023/05/09 08:56:00;;;;;;;28.77;15.30;;;16.80;99.90;;;;;;4806355;29;20055;-83
2023/05/09 08:58:26;;;;;;;32.47;17.33;;;16.70;99.90;;;;;;4797573;29;20054;-82
2023/05/09 09:00:54;;;;;;;30.27;16.40;;;16.80;99.90;;;;;;4789049;29;20137;-82
2023/05/09 09:03:20;;;;;;;34.25;17.38;;;16.90;99.90;;;;;;4789287;29;20145;-82
2023/05/09 09:05:49;;;;;;;33.40;19.77;;;16.90;99.90;;;;;;4805153;29;20138;-82
2023/05/09 09:08:15;;;;;;;31.40;17.40;;;16.80;99.90;;;;;;4814386;29;20039;-82
2023/05/09 09:10:45;;;;;;;40.33;19.00;;;16.90;99.90;;;;;;4822875;29;20050;-83
2023/05/09 09:13:13;;;;;;;36.17;20.05;;;16.90;99.90;;;;;;4805762;29;20492;-84
2023/05/09 09:15:42;;;;;;;30.35;17.98;;;16.90;99.90;;;;;;4808235;29;20054;-85
2023/05/09 09:18:11;;;;;;;32.00;16.83;;;17.00;99.90;;;;;;4806231;29;20088;-82
2023/05/09 09:20:44;;;;;;;31.52;16.45;;;17.10;99.90;;;;;;4789567;29;20111;-83
2023/05/09 09:23:11;;;;;;;35.10;19.48;;;17.10;99.90;;;;;;4788876;29;20055;-83
2023/05/09 09:25:40;;;;;;;29.38;15.52;;;17.20;99.90;;;;;;4824301;29;20061;-83
2023/05/09 09:28:06;;;;;;;30.92;16.92;;;17.30;99.90;;;;;;4824931;29;20070;-83
2023/05/09 09:30:32;;;;;;;33.70;16.75;;;17.30;99.90;;;;;;4810226;29;20518;-83
2023/05/09 09:32:59;;;;;;;30.20;16.77;;;17.40;99.90;;;;;;4826663;29;20079;-83
2023/05/09 09:35:27;;;;;;;31.27;17.02;;;17.60;99.90;;;;;;4809654;29;20448;-82
2023/05/09 09:37:57;;;;;;;26.65;15.65;;;17.70;99.90;;;;;;4818512;29;20481;-82
2023/05/09 09:40:23;;;;;;;34.63;18.15;;;17.70;99.90;;;;;;4791976;29;20051;-83
2023/05/09 09:42:51;;;;;;;30.73;17.10;;;17.70;99.90;;;;;;4798128;29;20110;-82
2023/05/09 09:45:18;;;;;;;30.52;16.77;;;17.70;99.90;;;;;;4819008;29;20050;-83
2023/05/09 09:47:45;;;;;;;29.73;16.35;;;17.70;99.90;;;;;;4820303;29;20121;-82
2023/05/09 09:50:16;;;;;;;32.63;17.73;;;17.90;99.90;;;;;;4823778;29;20102;-83
2023/05/09 09:57:01;;;;;;;30.48;15.95;;;17.80;99.90;;;;;;4808616;29;20042;-84
2023/05/09 09:59:29;;;;;;;26.17;16.13;;;18.00;99.90;;;;;;4792109;29;20054;-89
2023/05/09 10:02:00;;;;;;;29.50;16.38;;;18.00;99.90;;;;;;4808585;29;20058;-83
2023/05/09 10:04:34;;;;;;;25.77;14.50;;;17.90;99.90;;;;;;4809732;29;20051;-83
2023/05/09 10:07:05;;;;;;;27.52;14.52;;;17.90;99.90;;;;;;4809832;29;20137;-83
2023/05/09 10:09:32;;;;;;;23.80;13.95;;;17.90;99.90;;;;;;4809799;29;20055;-83
2023/05/09 10:12:03;;;;;;;24.58;14.13;;;17.90;99.90;;;;;;4825744;29;20042;-84
2023/05/09 10:14:31;;;;;;;24.20;14.25;;;17.80;99.90;;;;;;4809682;29;20078;-85
2023/05/09 10:16:59;;;;;;;28.70;15.10;;;17.70;99.90;;;;;;4815724;29;20051;-84
2023/05/09 10:19:28;;;;;;;21.73;13.07;;;17.70;99.90;;;;;;4808646;29;20485;-90
2023/05/09 10:22:05;;;;;;;23.48;13.10;;;17.60;99.90;;;;;;4776729;29;20137;-84
2023/05/09 10:25:12;;;;;;;23.73;14.98;;;17.60;99.90;;;;;;4808100;29;20047;-86
2023/05/09 10:27:43;;;;;;;23.67;12.85;;;17.70;99.90;;;;;;4737418;30;20170;-85
2023/05/09 10:30:30;;;;;;;19.42;11.93;;;17.80;99.90;;;;;;4737084;30;20052;-84
2023/05/09 10:33:07;;;;;;;22.40;12.73;;;17.90;99.90;;;;;;4737357;30;20087;-85
2023/05/09 10:35:36;;;;;;;22.80;12.32;;;17.80;99.90;;;;;;4746711;30;20077;-85
2023/05/09 10:38:18;;;;;;;19.38;12.02;;;17.80;99.90;;;;;;4754652;30;20059;-85
2023/05/09 10:40:47;;;;;;;19.38;10.45;;;17.80;99.90;;;;;;4769106;30;20052;-82
2023/05/09 10:43:13;;;;;;;17.63;10.90;;;17.90;99.90;;;;;;4753618;29;20055;-83
2023/05/09 10:45:42;;;;;;;22.05;12.13;;;18.00;99.90;;;;;;4754619;30;20488;-86
2023/05/09 10:48:10;;;;;;;20.80;12.52;;;18.00;99.90;;;;;;4754528;30;20054;-82
2023/05/09 10:50:50;;;;;;;23.95;14.27;;;18.30;99.90;;;;;;4754190;30;20063;-86
2023/05/09 10:53:17;;;;;;;18.58;13.32;;;18.40;99.90;;;;;;4754270;30;20051;-83
2023/05/09 10:55:59;;;;;;;20.27;11.48;;;18.60;99.90;;;;;;4769284;30;20055;-83
2023/05/09 10:58:32;;;;;;;17.63;10.93;;;18.60;99.90;;;;;;4754411;30;20066;-85
2023/05/09 11:01:00;;;;;;;17.77;10.75;;;18.60;99.90;;;;;;4739758;30;21072;-84
2023/05/09 11:03:27;;;;;;;19.55;10.85;;;18.60;99.90;;;;;;4791650;29;20418;-82
2023/05/09 11:05:56;;;;;;;21.80;11.73;;;18.60;99.90;;;;;;4794218;29;20066;-83
2023/05/09 11:08:29;;;;;;;18.55;11.05;;;18.60;99.90;;;;;;4825054;29;20420;-83
2023/05/09 11:10:59;;;;;;;17.20;10.90;;;18.50;99.90;;;;;;4824667;29;20039;-83
2023/05/09 11:13:31;;;;;;;17.98;11.68;;;18.50;99.90;;;;;;4793007;29;20046;-85
2023/05/09 11:15:59;;;;;;;18.67;11.45;;;18.50;99.90;;;;;;4807029;29;20047;-83
2023/05/09 11:18:26;;;;;;;16.02;10.85;;;18.50;99.90;;;;;;4806763;29;20457;-83
2023/05/09 11:20:52;;;;;;;16.17;10.25;;;18.40;99.90;;;;;;4775435;29;20096;-83
2023/05/09 11:23:19;;;;;;;17.30;10.02;;;18.40;99.90;;;;;;4790730;29;20086;-85
2023/05/09 11:25:46;;;;;;;17.10;11.20;;;18.40;99.90;;;;;;4806751;29;20188;-85
2023/05/09 11:28:36;;;;;;;18.45;10.57;;;18.30;99.90;;;;;;4804112;29;20133;-84
2023/05/09 11:31:16;;;;;;;16.25;10.60;;;18.40;99.90;;;;;;4807030;29;20047;-82
2023/05/09 11:33:45;;;;;;;16.10;8.85;;;18.40;99.90;;;;;;4806521;29;20061;-84
2023/05/09 11:36:18;;;;;;;16.63;10.20;;;18.40;99.90;;;;;;4810971;29;20449;-84
2023/05/09 11:38:46;;;;;;;15.48;10.05;;;18.30;99.90;;;;;;4806290;29;20062;-85
2023/05/09 11:41:14;;;;;;;13.85;9.13;;;18.20;99.90;;;;;;4790710;29;20050;-85
2023/05/09 11:43:43;;;;;;;16.20;9.85;;;18.30;99.90;;;;;;4787083;29;20050;-88
2023/05/09 11:46:09;;;;;;;14.98;9.80;;;18.30;99.90;;;;;;4806571;29;20058;-85
2023/05/09 11:48:42;;;;;;;14.60;8.75;;;18.30;99.90;;;;;;4790021;29;20050;-84
2023/05/09 11:51:18;;;;;;;14.52;9.68;;;18.30;99.90;;;;;;4807759;29;20057;-84
2023/05/09 11:53:45;;;;;;;15.27;8.75;;;18.30;99.90;;;;;;4824077;29;20054;-84
2023/05/09 11:56:13;;;;;;;17.52;10.13;;;18.30;99.90;;;;;;4823247;29;20066;-85
2023/05/09 11:58:39;;;;;;;15.30;10.10;;;18.30;99.90;;;;;;4805786;29;20047;-83
2023/05/09 12:01:05;;;;;;;16.98;10.88;;;18.30;99.90;;;;;;4790632;29;20057;-84
2023/05/09 12:03:32;;;;;;;17.25;10.20;;;18.40;99.90;;;;;;4783003;29;20054;-85
2023/05/09 12:05:58;;;;;;;13.18;9.43;;;18.50;99.90;;;;;;4792601;29;20046;-83
2023/05/09 12:08:24;;;;;;;16.10;8.80;;;18.70;99.90;;;;;;4824398;29;20050;-84
2023/05/09 12:10:50;;;;;;;13.95;8.02;;;18.80;99.90;;;;;;4802849;29;20047;-83
2023/05/09 12:13:18;;;;;;;11.60;8.20;;;19.00;99.90;;;;;;4774918;29;20409;-82
2023/05/09 12:15:43;;;;;;;11.95;8.02;;;19.10;99.90;;;;;;4817463;29;20526;-84
2023/05/09 12:18:10;;;;;;;14.77;9.13;;;19.20;99.90;;;;;;4823659;29;20043;-83
2023/05/09 12:20:44;;;;;;;15.25;10.10;;;19.20;99.90;;;;;;4807711;29;20487;-83
2023/05/09 12:23:13;;;;;;;17.75;10.80;;;19.30;99.90;;;;;;4823090;29;20038;-83
2023/05/09 12:25:52;;;;;;;13.80;8.18;;;19.30;99.90;;;;;;4807640;29;20065;-83
2023/05/09 12:28:20;;;;;;;11.20;7.10;;;19.40;99.90;;;;;;4806093;29;20046;-84
2023/05/09 12:30:46;;;;;;;12.63;7.47;;;19.50;99.90;;;;;;4823650;29;20050;-82
2023/05/09 12:33:15;;;;;;;14.05;8.80;;;19.50;99.90;;;;;;4806681;29;20086;-84
2023/05/09 12:35:46;;;;;;;12.75;9.25;;;19.80;99.90;;;;;;4824155;29;20232;-84
2023/05/09 12:38:19;;;;;;;11.75;8.15;;;19.70;99.90;;;;;;4823388;29;20391;-83